Aviation Digital Data Service (ADDS)

Output produced by METARs form (1102 UTC 06 March 2015)
found at http://www.aviationweather.gov/adds/metars/
 
KFIG 061054Z AUTO 00000KT 1SM BR VV002 M19/M21 A3046 RMK AO2 SLP351 I1000 T11941211
KFIG 061042Z AUTO 21004KT 1 3/4SM BR OVC002 M19/M21 A3046 RMK AO2 I1000 T11941211
KFIG 060954Z AUTO 00000KT 10SM BKN001 M19/M22 A3043 RMK AO2 SLP341 I1000 T11941217
KFIG 060951Z AUTO 00000KT 10SM SCT001 M19/M22 A3043 RMK AO2 I1000
KFIG 060854Z AUTO 00000KT 10SM CLR M19/M22 A3042 RMK AO2 SLP338 I1000 I3000 T11941217 51005
KFIG 060754Z AUTO 23004KT 10SM CLR M18/M21 A3042 RMK AO2 SLP335 T11831211
KFIG 060654Z AUTO 22004KT 10SM CLR M17/M21 A3042 RMK AO2 SLP336 T11721211
KFIG 060554Z AUTO 27003KT 10SM CLR M16/M21 A3041 RMK AO2 SLP331 T11611206 11100 21167 50004
KFIG 060454Z AUTO 32005KT 10SM CLR M16/M21 A3041 RMK AO2 SLP331 T11561206 410111156
KFIG 060354Z AUTO 30005KT 10SM CLR M14/M20 A3041 RMK AO2 SLP331 T11441200
KFIG 060254Z AUTO 29005KT 10SM CLR M13/M20 A3039 RMK AO2 SLP324 T11331200 53035
KFIG 060154Z AUTO 28006KT 10SM CLR M12/M19 A3036 RMK AO2 SLP310 T11221194
KFIG 060054Z AUTO 26006KT 10SM CLR M11/M19 A3032 RMK AO2 SLP296 T11111194
KFIG 052354Z AUTO 28007KT 10SM CLR M10/M19 A3029 RMK AO2 SLP283 60000 T11001189 11083 21100 51035
KFIG 052254Z AUTO 28009KT 10SM SCT120 M09/M18 A3026 RMK AO2 PRESRR SLP272 T10941183
KFIG 052154Z AUTO 31008KT 10SM OVC110 M08/M19 A3021 RMK AO2 SLP256 T10831189
KFIG 052054Z AUTO 33007KT 10SM OVC110 M09/M20 A3018 RMK AO2 SLP243 60000 T10891200 53001
KFIG 051954Z AUTO 31008KT 10SM OVC100 M09/M19 A3017 RMK AO2 UPE1857B34E36 SLP239 P0000 T10891194
KFIG 051854Z AUTO 29009KT 10SM UP OVC090 M09/M19 A3017 RMK AO2 UPB52 SLP240 P0000 T10891194
KFIG 051754Z AUTO 35009KT 10SM OVC100 M09/M21 A3017 RMK AO2 SLP241 60000 T10941206 11072 21100 51010
KFIG 051654Z AUTO 33006KT 10SM SCT090 M09/M19 A3017 RMK AO2 SLP239 T10941194
KFIG 051554Z AUTO 33006KT 10SM OVC085 M09/M19 A3018 RMK AO2 SLP242 T10941194
KFIG 051454Z AUTO 35010KT 10SM SCT085 BKN110 M09/M17 A3014 RMK AO2 SLP229 60000 T10941172 50017
KFIG 051354Z AUTO 33011KT 10SM OVC090 M09/M16 A3015 RMK AO2 SLP231 T10941156
KFIG 051254Z AUTO 33012KT 9SM SCT034 OVC080 M09/M13 A3013 RMK AO2 SNE52 SLP225 P0000 T10891133
KFIG 051154Z AUTO 33009KT 5SM -SN OVC048 M07/M11 A3009 RMK AO2 SLP210 P0000 60001 70002 T10721106 11017 21072 51022
KFIG 051128Z AUTO 32008KT 3SM -SN OVC030 M07/M10 A3009 RMK AO2 P0000 T10721100
KFIG 051113Z AUTO 34003KT 2SM -SN OVC030 M07/M09 A3008 RMK AO2 P0000 T10671094
KFIG 051059Z AUTO 34006KT 3SM -SN FEW021 OVC030 M07/M10 A3008 RMK AO2 P0000 T10671100
KFIG 051042Z AUTO 35011KT 2SM -SN FEW012 OVC019 M07/M10 A3008 RMK AO2 P0000 T10671100
KFIG 051004Z AUTO 31008KT 1 3/4SM -SN BR OVC027 M06/M08 A3007 RMK AO2 P0000 T10611083
KFIG 050954Z AUTO 32008KT 2SM -SN OVC029 M06/M08 A3006 RMK AO2 SLP198 P0000 T10561083
KFIG 050931Z AUTO 34012KT 2SM -SN OVC031 M06/M08 A3004 RMK AO2 P0000 T10561083
KFIG 050923Z AUTO 33011KT 3SM -SN FEW026 OVC035 M05/M08 A3004 RMK AO2 P0000 T10501078
KFIG 050910Z AUTO 35013G18KT 2 1/2SM -SN OVC028 M05/M08 A3004 RMK AO2 P0000 T10501083
KFIG 050854Z AUTO 32009KT 8SM -SN BKN046 OVC075 M04/M09 A3002 RMK AO2 UPB31E50SNB52 SLP184 P0000 60000 T10391089 50012
KFIG 050754Z AUTO 30010G20KT 10SM SCT031 BKN070 OVC110 M03/M08 A3002 RMK AO2 SNE10 SLP183 P0000 T10281083
KFIG 050654Z AUTO 29012G16KT 7SM -SN FEW019 OVC038 M02/M06 A3000 RMK AO2 SNE0556B13 SLP175 P0000 T10221061
KFIG 050606Z AUTO 29010KT 10SM FEW018 BKN048 OVC070 M02/M06 A2999 RMK AO2 SNE0556 P0000 T10171056
KFIG 050554Z AUTO 29007KT 6SM -SN FEW016 BKN026 OVC110 M02/M06 A2998 RMK AO2 SLP169 P0000 60001 T10171056 10006 21022 51006
KFIG 050550Z AUTO 29008KT 4SM -SN FEW019 BKN028 OVC110 M02/M06 A2998 RMK AO2 P0000
KFIG 050533Z AUTO 28005G14KT 2SM -SN OVC028 M02/M05 A2997 RMK AO2 P0000 T10171050
KFIG 050523Z AUTO 29008G21KT 3SM -SN OVC034 M02/M06 A2998 RMK AO2 P0000 T10171056
KFIG 050454Z AUTO 28008KT 2 1/2SM -SN OVC040 M01/M04 A2998 RMK AO2 SNE13B30 SLP166 P0000 T10111044 400221011
KFIG 050354Z AUTO 28005KT 4SM -SN BR FEW012 SCT019 OVC035 M01/M03 A2997 RMK AO2 SNB01 SLP163 P0000 T10111028
KFIG 050350Z AUTO VRB05KT 3SM -SN BR FEW012 BKN027 OVC033 M01/M03 A2997 RMK AO2 SNB01 P0000
KFIG 050339Z AUTO 25003KT 2SM -SN BR SCT018 BKN022 OVC030 M01/M03 A2997 RMK AO2 SNB01 P0000 T10111028
KFIG 050325Z AUTO 25005KT 1 3/4SM -SN FEW018 SCT027 OVC035 M01/M03 A2997 RMK AO2 SNB01 P0000 T10061033
KFIG 050254Z AUTO 28009KT 9SM FEW018 BKN047 OVC070 00/M03 A2995 RMK AO2 SNE49 SLP157 P0000 60001 T00001033 51017
KFIG 050154Z AUTO 27006KT 5SM -SN FEW024 OVC047 00/M03 A2994 RMK AO2 SLP154 P0000 T00001028
KFIG 050121Z AUTO 28010KT 6SM -SN FEW014 SCT021 OVC050 01/M03 A2993 RMK AO2 P0000 T00061028
KFIG 050054Z AUTO 25004KT 3SM -SN BR SCT016 BKN022 OVC041 01/M01 A2992 RMK AO2 SLP146 P0001 T00061011
KFIG 050044Z AUTO 24007KT 210V270 2 1/2SM -SN BR SCT018 BKN022 OVC033 01/M01 A2991 RMK AO2 P0001 T00061011
KFIG 050035Z AUTO 26004KT 3SM -SN BR FEW016 FEW028 OVC032 01/M01 A2991 RMK AO2 P0000 T00061011
KFIG 050014Z AUTO 25005KT 2 1/2SM -SN BR BKN031 OVC045 01/M01 A2991 RMK AO2 P0000 T00061006
KFIG 042354Z AUTO 23004KT 3SM -SN BR FEW014 BKN035 OVC045 01/M01 A2990 RMK AO2 SNE16B28 SLP139 P0000 60000 T00061006 10022 20006 53008
KFIG 042351Z AUTO 22004KT 3SM -SN BR SCT014 BKN030 OVC045 01/M01 A2990 RMK AO2 SNE16B28 P0000
KFIG 042342Z AUTO 24004KT 2 1/2SM -SN BR SCT014 BKN019 OVC034 01/M01 A2990 RMK AO2 SNE16B28 P0000 T00061011
KFIG 042328Z AUTO 23004KT 8SM -SN FEW014 BKN018 OVC070 01/M01 A2989 RMK AO2 SNE16B28 PRESRR P0000 T00061011
KFIG 042316Z AUTO 23004KT 7SM SCT018 BKN044 OVC070 01/M01 A2988 RMK AO2 SNE16 P0000 T00111011